sensor_id;sensor_type;location;lat;lon;timestamp;pressure;altitude;pressure_sealevel;temperature;humidity
10460;BME280;54412;51.206;6.888;2023-09-19T00:00:46;100154.53;;;18.55;74.58
10460;BME280;54412;51.206;6.888;2023-09-19T00:03:12;100160.75;;;18.84;73.18
10460;BME280;54412;51.206;6.888;2023-09-19T00:05:39;100165.25;;;18.84;72.99
10460;BME280;54412;51.206;6.888;2023-09-19T00:08:05;100170.75;;;18.72;72.71
10460;BME280;54412;51.206;6.888;2023-09-19T00:10:33;100167.22;;;18.91;73.04
10460;BME280;54412;51.206;6.888;2023-09-19T00:13:05;100174.28;;;18.92;72.05
10460;BME280;54412;51.206;6.888;2023-09-19T00:15:40;100172.84;;;18.69;72.34
10460;BME280;54412;51.206;6.888;2023-09-19T00:18:06;100168.47;;;18.68;73.63
10460;BME280;54412;51.206;6.888;2023-09-19T00:20:35;100170.69;;;18.53;73.55
10460;BME280;54412;51.206;6.888;2023-09-19T00:23:01;100175.50;;;18.59;73.33
10460;BME280;54412;51.206;6.888;2023-09-19T00:25:29;100175.31;;;18.51;73.63
10460;BME280;54412;51.206;6.888;2023-09-19T00:27:55;100175.91;;;18.55;73.63
10460;BME280;54412;51.206;6.888;2023-09-19T00:30:21;100174.06;;;18.46;73.12
10460;BME280;54412;51.206;6.888;2023-09-19T00:32:48;100173.25;;;18.84;71.73
10460;BME280;54412;51.206;6.888;2023-09-19T00:35:15;100180.16;;;18.76;71.84
10460;BME280;54412;51.206;6.888;2023-09-19T00:37:41;100183.63;;;18.48;72.59
10460;BME280;54412;51.206;6.888;2023-09-19T00:40:09;100181.66;;;18.50;72.51
10460;BME280;54412;51.206;6.888;2023-09-19T00:42:45;100179.28;;;18.57;72.61
10460;BME280;54412;51.206;6.888;2023-09-19T00:45:14;100191.78;;;18.47;72.47
10460;BME280;54412;51.206;6.888;2023-09-19T00:47:42;100183.00;;;18.35;72.87
10460;BME280;54412;51.206;6.888;2023-09-19T00:50:09;100188.84;;;18.59;72.47
10460;BME280;54412;51.206;6.888;2023-09-19T00:52:37;100182.78;;;18.48;72.64
10460;BME280;54412;51.206;6.888;2023-09-19T00:55:06;100191.94;;;18.64;72.04
10460;BME280;54412;51.206;6.888;2023-09-19T00:57:33;100187.19;;;18.77;71.21
10460;BME280;54412;51.206;6.888;2023-09-19T01:00:02;100199.69;;;18.58;72.17
10460;BME280;54412;51.206;6.888;2023-09-19T01:02:33;100196.63;;;18.32;72.51
10460;BME280;54412;51.206;6.888;2023-09-19T01:04:59;100198.72;;;18.29;72.70
10460;BME280;54412;51.206;6.888;2023-09-19T01:07:27;100198.09;;;18.46;72.83
10460;BME280;54412;51.206;6.888;2023-09-19T01:09:57;100198.72;;;18.29;72.34
10460;BME280;54412;51.206;6.888;2023-09-19T01:18:35;100205.13;;;18.47;72.08
10460;BME280;54412;51.206;6.888;2023-09-19T01:21:26;100206.06;;;18.36;72.67
10460;BME280;54412;51.206;6.888;2023-09-19T01:24:34;100221.75;;;18.30;72.75
10460;BME280;54412;51.206;6.888;2023-09-19T01:30:22;100214.06;;;18.36;72.30
10460;BME280;54412;51.206;6.888;2023-09-19T01:32:51;100221.59;;;18.52;71.67
10460;BME280;54412;51.206;6.888;2023-09-19T01:35:18;100223.84;;;18.66;71.17
10460;BME280;54412;51.206;6.888;2023-09-19T01:37:45;100215.31;;;18.72;70.74
10460;BME280;54412;51.206;6.888;2023-09-19T01:40:14;100223.81;;;18.56;70.53
10460;BME280;54412;51.206;6.888;2023-09-19T01:48:38;100250.91;;;18.42;71.90
10460;BME280;54412;51.206;6.888;2023-09-19T01:51:10;100248.25;;;18.42;71.86
10460;BME280;54412;51.206;6.888;2023-09-19T01:53:58;100243.09;;;18.50;71.09
10460;BME280;54412;51.206;6.888;2023-09-19T01:56:36;100241.72;;;18.35;71.27
10460;BME280;54412;51.206;6.888;2023-09-19T01:59:10;100239.28;;;18.23;72.29
10460;BME280;54412;51.206;6.888;2023-09-19T02:01:37;100245.19;;;18.47;72.02
10460;BME280;54412;51.206;6.888;2023-09-19T02:04:04;100245.50;;;18.63;70.97
10460;BME280;54412;51.206;6.888;2023-09-19T02:06:31;100239.63;;;18.29;71.37
10460;BME280;54412;51.206;6.888;2023-09-19T02:08:57;100249.53;;;18.18;72.03
10460;BME280;54412;51.206;6.888;2023-09-19T02:11:24;100242.41;;;18.28;71.54
10460;BME280;54412;51.206;6.888;2023-09-19T02:13:50;100252.84;;;18.40;71.28
10460;BME280;54412;51.206;6.888;2023-09-19T02:16:20;100250.03;;;18.32;71.88
10460;BME280;54412;51.206;6.888;2023-09-19T02:18:49;100259.00;;;18.31;71.68
10460;BME280;54412;51.206;6.888;2023-09-19T02:21:16;100261.06;;;18.48;71.19
10460;BME280;54412;51.206;6.888;2023-09-19T02:23:44;100258.09;;;18.42;69.99
10460;BME280;54412;51.206;6.888;2023-09-19T02:26:10;100264.34;;;18.31;70.94
10460;BME280;54412;51.206;6.888;2023-09-19T02:28:37;100264.59;;;18.28;69.67
10460;BME280;54412;51.206;6.888;2023-09-19T02:31:03;100273.56;;;17.97;71.08
10460;BME280;54412;51.206;6.888;2023-09-19T02:33:31;100271.63;;;17.99;70.97
10460;BME280;54412;51.206;6.888;2023-09-19T02:36:01;100285.88;;;18.09;71.27
10460;BME280;54412;51.206;6.888;2023-09-19T02:38:29;100276.16;;;18.08;71.28
10460;BME280;54412;51.206;6.888;2023-09-19T02:40:55;100284.91;;;18.10;69.16
10460;BME280;54412;51.206;6.888;2023-09-19T02:43:24;100279.19;;;18.24;69.58
10460;BME280;54412;51.206;6.888;2023-09-19T02:45:50;100283.66;;;18.14;70.07
10460;BME280;54412;51.206;6.888;2023-09-19T02:48:16;100280.06;;;18.25;68.98
10460;BME280;54412;51.206;6.888;2023-09-19T02:50:44;100283.38;;;18.17;69.47
10460;BME280;54412;51.206;6.888;2023-09-19T02:53:10;100280.00;;;18.15;68.97
10460;BME280;54412;51.206;6.888;2023-09-19T02:55:38;100285.34;;;18.15;69.27
10460;BME280;54412;51.206;6.888;2023-09-19T02:58:06;100287.78;;;17.98;69.91
10460;BME280;54412;51.206;6.888;2023-09-19T03:00:37;100282.84;;;18.23;68.68
10460;BME280;54412;51.206;6.888;2023-09-19T03:03:03;100291.22;;;18.09;68.89
10460;BME280;54412;51.206;6.888;2023-09-19T03:05:30;100288.28;;;18.12;68.84
10460;BME280;54412;51.206;6.888;2023-09-19T03:07:56;100292.53;;;18.15;69.22
10460;BME280;54412;51.206;6.888;2023-09-19T03:10:22;100299.44;;;17.97;69.05
10460;BME280;54412;51.206;6.888;2023-09-19T03:12:50;100305.00;;;18.14;68.65
10460;BME280;54412;51.206;6.888;2023-09-19T03:15:16;100304.03;;;18.15;67.99
10460;BME280;54412;51.206;6.888;2023-09-19T03:17:45;100307.09;;;17.90;68.56
10460;BME280;54412;51.206;6.888;2023-09-19T03:20:11;100316.19;;;18.08;67.61
10460;BME280;54412;51.206;6.888;2023-09-19T03:22:39;100310.22;;;18.16;67.61
10460;BME280;54412;51.206;6.888;2023-09-19T03:25:07;100307.41;;;18.17;67.21
10460;BME280;54412;51.206;6.888;2023-09-19T03:27:37;100303.91;;;18.17;67.11
10460;BME280;54412;51.206;6.888;2023-09-19T03:30:05;100303.34;;;18.13;67.13
10460;BME280;54412;51.206;6.888;2023-09-19T03:32:35;100301.06;;;17.67;67.88
10460;BME280;54412;51.206;6.888;2023-09-19T03:35:02;100300.66;;;17.72;67.80
10460;BME280;54412;51.206;6.888;2023-09-19T03:37:28;100300.47;;;17.64;68.09
10460;BME280;54412;51.206;6.888;2023-09-19T03:39:53;100296.25;;;17.82;68.16
10460;BME280;54412;51.206;6.888;2023-09-19T03:42:19;100292.34;;;17.86;67.89
10460;BME280;54412;51.206;6.888;2023-09-19T03:44:51;100300.03;;;18.00;66.65
10460;BME280;54412;51.206;6.888;2023-09-19T03:47:18;100292.47;;;17.85;67.18
10460;BME280;54412;51.206;6.888;2023-09-19T03:49:44;100295.28;;;17.62;67.34
10460;BME280;54412;51.206;6.888;2023-09-19T03:52:10;100298.19;;;17.59;67.09
10460;BME280;54412;51.206;6.888;2023-09-19T03:54:36;100289.84;;;17.53;67.79
10460;BME280;54412;51.206;6.888;2023-09-19T03:57:03;100293.84;;;17.79;66.11
10460;BME280;54412;51.206;6.888;2023-09-19T03:59:29;100288.59;;;17.68;66.98
10460;BME280;54412;51.206;6.888;2023-09-19T04:01:55;100291.19;;;17.79;66.98
10460;BME280;54412;51.206;6.888;2023-09-19T04:04:22;100298.66;;;17.85;66.58
10460;BME280;54412;51.206;6.888;2023-09-19T04:06:53;100290.13;;;17.70;66.96
10460;BME280;54412;51.206;6.888;2023-09-19T04:09:18;100291.19;;;17.79;66.65
10460;BME280;54412;51.206;6.888;2023-09-19T04:11:44;100297.28;;;17.91;66.24
10460;BME280;54412;51.206;6.888;2023-09-19T04:14:09;100295.41;;;17.82;66.65
10460;BME280;54412;51.206;6.888;2023-09-19T04:16:35;100295.13;;;17.64;66.25
10460;BME280;54412;51.206;6.888;2023-09-19T04:19:01;100298.91;;;17.61;66.69
10460;BME280;54412;51.206;6.888;2023-09-19T04:21:28;100300.06;;;17.68;67.13
10460;BME280;54412;51.206;6.888;2023-09-19T04:23:54;100295.91;;;17.55;67.21
10460;BME280;54412;51.206;6.888;2023-09-19T04:26:20;100308.59;;;17.83;65.99
10460;BME280;54412;51.206;6.888;2023-09-19T04:28:47;100296.44;;;17.69;66.53
10460;BME280;54412;51.206;6.888;2023-09-19T04:31:13;100302.19;;;17.54;66.52
10460;BME280;54412;51.206;6.888;2023-09-19T04:33:39;100298.72;;;17.74;66.35
10460;BME280;54412;51.206;6.888;2023-09-19T04:36:05;100300.88;;;17.80;65.40
10460;BME280;54412;51.206;6.888;2023-09-19T04:38:33;100314.66;;;17.64;66.62
10460;BME280;54412;51.206;6.888;2023-09-19T04:40:59;100317.84;;;17.58;66.42
10460;BME280;54412;51.206;6.888;2023-09-19T04:43:26;100316.16;;;17.78;66.12
10460;BME280;54412;51.206;6.888;2023-09-19T04:45:52;100302.09;;;17.76;66.20
10460;BME280;54412;51.206;6.888;2023-09-19T04:48:22;100305.75;;;17.75;66.21
10460;BME280;54412;51.206;6.888;2023-09-19T04:50:51;100311.28;;;17.83;65.58
10460;BME280;54412;51.206;6.888;2023-09-19T04:53:20;100314.06;;;17.82;65.96
10460;BME280;54412;51.206;6.888;2023-09-19T04:55:51;100315.50;;;17.65;66.16
10460;BME280;54412;51.206;6.888;2023-09-19T04:58:18;100320.31;;;17.71;66.01
10460;BME280;54412;51.206;6.888;2023-09-19T05:00:45;100309.44;;;17.63;66.08
10460;BME280;54412;51.206;6.888;2023-09-19T05:03:11;100317.19;;;17.66;66.19
10460;BME280;54412;51.206;6.888;2023-09-19T05:05:37;100311.78;;;17.45;66.75
10460;BME280;54412;51.206;6.888;2023-09-19T05:08:04;100320.00;;;17.64;66.84
10460;BME280;54412;51.206;6.888;2023-09-19T05:10:32;100319.47;;;17.39;66.68
10460;BME280;54412;51.206;6.888;2023-09-19T05:12:58;100319.63;;;17.26;67.49
10460;BME280;54412;51.206;6.888;2023-09-19T05:15:23;100333.28;;;17.33;67.54
10460;BME280;54412;51.206;6.888;2023-09-19T05:17:51;100330.13;;;17.39;67.32
10460;BME280;54412;51.206;6.888;2023-09-19T05:20:17;100337.75;;;17.32;67.70
10460;BME280;54412;51.206;6.888;2023-09-19T05:23:02;100337.28;;;17.38;67.84
10460;BME280;54412;51.206;6.888;2023-09-19T05:25:35;100349.06;;;17.36;68.04
10460;BME280;54412;51.206;6.888;2023-09-19T05:28:10;100349.88;;;17.36;68.46
10460;BME280;54412;51.206;6.888;2023-09-19T05:30:37;100350.81;;;17.57;67.70
10460;BME280;54412;51.206;6.888;2023-09-19T05:33:07;100363.44;;;17.55;67.81
10460;BME280;54412;51.206;6.888;2023-09-19T05:35:34;100364.53;;;17.42;67.56
10460;BME280;54412;51.206;6.888;2023-09-19T05:38:00;100371.16;;;17.58;67.15
10460;BME280;54412;51.206;6.888;2023-09-19T05:40:26;100378.09;;;17.61;66.74
10460;BME280;54412;51.206;6.888;2023-09-19T05:42:52;100383.84;;;17.77;66.22
10460;BME280;54412;51.206;6.888;2023-09-19T05:45:18;100388.91;;;17.80;65.79
10460;BME280;54412;51.206;6.888;2023-09-19T05:47:52;100391.34;;;17.72;66.46
10460;BME280;54412;51.206;6.888;2023-09-19T05:50:21;100389.16;;;17.77;67.53
10460;BME280;54412;51.206;6.888;2023-09-19T05:52:54;100387.50;;;17.97;66.21
10460;BME280;54412;51.206;6.888;2023-09-19T05:55:21;100389.03;;;17.99;65.55
10460;BME280;54412;51.206;6.888;2023-09-19T05:57:53;100402.34;;;18.10;66.29
10460;BME280;54412;51.206;6.888;2023-09-19T06:00:20;100408.31;;;18.03;65.75
10460;BME280;54412;51.206;6.888;2023-09-19T06:02:55;100411.56;;;18.06;66.04
10460;BME280;54412;51.206;6.888;2023-09-19T06:05:26;100418.03;;;18.24;66.27
10460;BME280;54412;51.206;6.888;2023-09-19T06:07:53;100430.53;;;18.24;65.56
10460;BME280;54412;51.206;6.888;2023-09-19T06:10:19;100431.13;;;18.27;64.80
10460;BME280;54412;51.206;6.888;2023-09-19T06:12:49;100434.75;;;18.26;64.99
10460;BME280;54412;51.206;6.888;2023-09-19T06:15:16;100434.31;;;18.21;64.55
10460;BME280;54412;51.206;6.888;2023-09-19T06:17:49;100435.75;;;18.25;65.79
10460;BME280;54412;51.206;6.888;2023-09-19T06:20:15;100434.91;;;18.25;65.32
10460;BME280;54412;51.206;6.888;2023-09-19T06:22:44;100426.50;;;18.09;65.12
10460;BME280;54412;51.206;6.888;2023-09-19T06:25:11;100426.44;;;17.88;66.12
10460;BME280;54412;51.206;6.888;2023-09-19T06:27:41;100421.97;;;17.89;65.52
10460;BME280;54412;51.206;6.888;2023-09-19T06:30:09;100425.31;;;18.02;66.00
10460;BME280;54412;51.206;6.888;2023-09-19T06:32:35;100419.53;;;17.97;66.41
10460;BME280;54412;51.206;6.888;2023-09-19T06:35:01;100418.88;;;18.04;66.11
10460;BME280;54412;51.206;6.888;2023-09-19T06:37:29;100416.22;;;18.04;66.13
10460;BME280;54412;51.206;6.888;2023-09-19T06:39:55;100415.22;;;18.05;66.42
10460;BME280;54412;51.206;6.888;2023-09-19T06:42:22;100422.72;;;18.11;65.88
10460;BME280;54412;51.206;6.888;2023-09-19T06:44:49;100417.94;;;17.94;66.39
10460;BME280;54412;51.206;6.888;2023-09-19T06:47:15;100420.16;;;18.10;65.85
10460;BME280;54412;51.206;6.888;2023-09-19T06:49:42;100422.56;;;17.92;66.85
10460;BME280;54412;51.206;6.888;2023-09-19T06:52:10;100422.38;;;18.05;66.55
10460;BME280;54412;51.206;6.888;2023-09-19T06:54:35;100420.25;;;17.99;66.48
10460;BME280;54412;51.206;6.888;2023-09-19T06:57:01;100420.06;;;18.11;66.85
10460;BME280;54412;51.206;6.888;2023-09-19T06:59:27;100420.28;;;18.08;66.89
10460;BME280;54412;51.206;6.888;2023-09-19T07:01:53;100431.63;;;18.21;66.83
10460;BME280;54412;51.206;6.888;2023-09-19T07:04:18;100435.41;;;18.19;67.01
10460;BME280;54412;51.206;6.888;2023-09-19T07:06:50;100431.00;;;17.97;67.01
10460;BME280;54412;51.206;6.888;2023-09-19T07:09:17;100429.81;;;18.22;67.13
10460;BME280;54412;51.206;6.888;2023-09-19T07:11:45;100434.56;;;18.39;66.64
10460;BME280;54412;51.206;6.888;2023-09-19T07:14:11;100433.56;;;18.51;67.15
10460;BME280;54412;51.206;6.888;2023-09-19T07:16:38;100430.66;;;18.02;67.87
10460;BME280;54412;51.206;6.888;2023-09-19T07:19:05;100439.25;;;18.05;67.85
10460;BME280;54412;51.206;6.888;2023-09-19T07:21:31;100437.38;;;18.17;67.59
10460;BME280;54412;51.206;6.888;2023-09-19T07:24:00;100433.06;;;18.25;67.87
10460;BME280;54412;51.206;6.888;2023-09-19T07:26:26;100442.38;;;18.42;67.02
10460;BME280;54412;51.206;6.888;2023-09-19T07:28:53;100445.59;;;18.66;67.06
10460;BME280;54412;51.206;6.888;2023-09-19T07:31:20;100442.41;;;18.51;66.97
10460;BME280;54412;51.206;6.888;2023-09-19T07:33:45;100449.69;;;18.49;66.54
10460;BME280;54412;51.206;6.888;2023-09-19T07:36:12;100448.53;;;18.42;66.71
10460;BME280;54412;51.206;6.888;2023-09-19T07:38:40;100447.78;;;18.40;66.86
10460;BME280;54412;51.206;6.888;2023-09-19T07:41:07;100458.28;;;18.32;66.95
10460;BME280;54412;51.206;6.888;2023-09-19T07:43:35;100451.69;;;18.47;67.04
10460;BME280;54412;51.206;6.888;2023-09-19T07:46:08;100459.50;;;18.60;66.18
10460;BME280;54412;51.206;6.888;2023-09-19T07:48:38;100451.59;;;18.06;67.58
10460;BME280;54412;51.206;6.888;2023-09-19T07:51:08;100462.44;;;18.25;67.30
10460;BME280;54412;51.206;6.888;2023-09-19T07:53:35;100456.88;;;18.17;67.20
10460;BME280;54412;51.206;6.888;2023-09-19T07:56:09;100463.72;;;18.42;67.20
10460;BME280;54412;51.206;6.888;2023-09-19T07:58:38;100458.47;;;18.20;67.62
10460;BME280;54412;51.206;6.888;2023-09-19T08:01:08;100454.75;;;18.32;67.64
10460;BME280;54412;51.206;6.888;2023-09-19T08:03:36;100445.94;;;18.00;67.03
10460;BME280;54412;51.206;6.888;2023-09-19T08:06:07;100458.06;;;18.24;67.71
10460;BME280;54412;51.206;6.888;2023-09-19T08:08:34;100460.53;;;18.68;65.93
10460;BME280;54412;51.206;6.888;2023-09-19T08:11:04;100468.41;;;18.49;66.77
10460;BME280;54412;51.206;6.888;2023-09-19T08:13:39;100470.03;;;18.41;66.65
10460;BME280;54412;51.206;6.888;2023-09-19T08:16:15;100475.44;;;18.50;65.96
10460;BME280;54412;51.206;6.888;2023-09-19T08:18:41;100474.66;;;18.59;66.26
10460;BME280;54412;51.206;6.888;2023-09-19T08:21:07;100477.84;;;18.74;65.72
10460;BME280;54412;51.206;6.888;2023-09-19T08:23:37;100479.00;;;18.60;65.59
10460;BME280;54412;51.206;6.888;2023-09-19T08:26:04;100468.81;;;18.96;65.12
10460;BME280;54412;51.206;6.888;2023-09-19T08:28:34;100472.44;;;18.95;64.57
10460;BME280;54412;51.206;6.888;2023-09-19T08:31:04;100486.41;;;18.98;64.11
10460;BME280;54412;51.206;6.888;2023-09-19T08:33:35;100477.00;;;19.04;64.50
10460;BME280;54412;51.206;6.888;2023-09-19T08:36:05;100486.88;;;19.33;63.74
10460;BME280;54412;51.206;6.888;2023-09-19T08:38:34;100478.72;;;19.35;63.67
10460;BME280;54412;51.206;6.888;2023-09-19T08:41:04;100504.38;;;19.47;63.22
10460;BME280;54412;51.206;6.888;2023-09-19T08:43:30;100490.41;;;19.13;63.69
10460;BME280;54412;51.206;6.888;2023-09-19T08:46:11;100498.00;;;19.08;63.88
10460;BME280;54412;51.206;6.888;2023-09-19T08:48:46;100488.75;;;19.22;63.82
10460;BME280;54412;51.206;6.888;2023-09-19T08:51:26;100496.91;;;19.50;62.33
10460;BME280;54412;51.206;6.888;2023-09-19T08:54:12;100486.56;;;19.76;62.46
10460;BME280;54412;51.206;6.888;2023-09-19T08:56:43;100487.41;;;19.86;61.66
10460;BME280;54412;51.206;6.888;2023-09-19T08:59:09;100485.44;;;19.78;61.54
10460;BME280;54412;51.206;6.888;2023-09-19T09:01:38;100485.88;;;19.84;60.81
10460;BME280;54412;51.206;6.888;2023-09-19T09:04:09;100490.22;;;19.85;60.52
10460;BME280;54412;51.206;6.888;2023-09-19T09:06:36;100495.19;;;19.89;60.46
10460;BME280;54412;51.206;6.888;2023-09-19T09:09:03;100486.88;;;20.02;60.12
10460;BME280;54412;51.206;6.888;2023-09-19T09:11:29;100491.81;;;20.16;59.59
10460;BME280;54412;51.206;6.888;2023-09-19T09:13:58;100497.03;;;19.98;59.36
10460;BME280;54412;51.206;6.888;2023-09-19T09:16:24;100496.19;;;20.07;59.34
10460;BME280;54412;51.206;6.888;2023-09-19T09:18:51;100492.19;;;19.83;58.31
10460;BME280;54412;51.206;6.888;2023-09-19T09:21:21;100484.06;;;19.84;58.54
10460;BME280;54412;51.206;6.888;2023-09-19T09:23:48;100486.59;;;20.14;58.73
10460;BME280;54412;51.206;6.888;2023-09-19T09:26:15;100479.41;;;19.96;59.26
10460;BME280;54412;51.206;6.888;2023-09-19T09:28:46;100479.22;;;19.59;59.21
10460;BME280;54412;51.206;6.888;2023-09-19T09:31:24;100488.13;;;19.98;59.44
10460;BME280;54412;51.206;6.888;2023-09-19T09:33:55;100476.31;;;20.00;58.58
10460;BME280;54412;51.206;6.888;2023-09-19T09:36:38;100493.19;;;20.01;58.70
10460;BME280;54412;51.206;6.888;2023-09-19T09:39:07;100474.03;;;19.86;58.33
10460;BME280;54412;51.206;6.888;2023-09-19T09:41:44;100484.72;;;19.86;58.19
10460;BME280;54412;51.206;6.888;2023-09-19T09:44:16;100483.09;;;19.45;59.11
10460;BME280;54412;51.206;6.888;2023-09-19T09:46:48;100487.66;;;19.64;57.80
10460;BME280;54412;51.206;6.888;2023-09-19T09:49:25;100482.22;;;20.13;57.96
10460;BME280;54412;51.206;6.888;2023-09-19T09:52:05;100478.56;;;20.05;58.04
10460;BME280;54412;51.206;6.888;2023-09-19T09:54:35;100487.59;;;20.04;57.44
10460;BME280;54412;51.206;6.888;2023-09-19T09:57:07;100492.91;;;19.85;57.04
10460;BME280;54412;51.206;6.888;2023-09-19T09:59:54;100479.66;;;19.83;57.76
10460;BME280;54412;51.206;6.888;2023-09-19T10:02:29;100480.38;;;20.14;57.38
10460;BME280;54412;51.206;6.888;2023-09-19T10:04:59;100483.09;;;20.33;57.26
10460;BME280;54412;51.206;6.888;2023-09-19T10:07:41;100484.50;;;20.46;56.17
10460;BME280;54412;51.206;6.888;2023-09-19T10:10:13;100477.31;;;20.47;55.87
10460;BME280;54412;51.206;6.888;2023-09-19T10:12:46;100499.28;;;20.69;55.56
10460;BME280;54412;51.206;6.888;2023-09-19T10:15:18;100471.50;;;20.42;55.75
10460;BME280;54412;51.206;6.888;2023-09-19T10:17:47;100470.53;;;20.24;56.04
10460;BME280;54412;51.206;6.888;2023-09-19T10:20:16;100469.13;;;20.39;56.41
10460;BME280;54412;51.206;6.888;2023-09-19T10:22:50;100475.00;;;20.71;55.71
10460;BME280;54412;51.206;6.888;2023-09-19T10:25:26;100463.63;;;20.59;55.64
10460;BME280;54412;51.206;6.888;2023-09-19T10:27:55;100470.41;;;20.54;54.53
10460;BME280;54412;51.206;6.888;2023-09-19T10:30:24;100461.75;;;20.69;54.68
10460;BME280;54412;51.206;6.888;2023-09-19T10:33:02;100457.72;;;20.46;55.27
10460;BME280;54412;51.206;6.888;2023-09-19T10:35:29;100443.38;;;20.84;53.78
10460;BME280;54412;51.206;6.888;2023-09-19T10:38:01;100440.09;;;21.27;52.25
10460;BME280;54412;51.206;6.888;2023-09-19T10:40:28;100446.63;;;21.24;52.52
10460;BME280;54412;51.206;6.888;2023-09-19T10:43:05;100444.22;;;21.21;51.87
10460;BME280;54412;51.206;6.888;2023-09-19T10:45:35;100446.75;;;21.50;51.92
10460;BME280;54412;51.206;6.888;2023-09-19T10:48:04;100456.28;;;21.89;52.35
10460;BME280;54412;51.206;6.888;2023-09-19T10:53:12;100443.13;;;22.21;51.91
10460;BME280;54412;51.206;6.888;2023-09-19T10:55:40;100448.84;;;21.73;51.83
10460;BME280;54412;51.206;6.888;2023-09-19T10:58:06;100452.38;;;21.74;50.82
10460;BME280;54412;51.206;6.888;2023-09-19T11:00:54;100447.31;;;21.98;51.08
10460;BME280;54412;51.206;6.888;2023-09-19T11:03:22;100457.09;;;21.90;52.23
10460;BME280;54412;51.206;6.888;2023-09-19T11:06:11;100456.13;;;22.08;50.61
10460;BME280;54412;51.206;6.888;2023-09-19T11:09:00;100455.91;;;22.02;51.21
10460;BME280;54412;51.206;6.888;2023-09-19T11:14:40;100465.31;;;22.06;51.86
10460;BME280;54412;51.206;6.888;2023-09-19T11:30:46;100460.66;;;22.51;50.82
10460;BME280;54412;51.206;6.888;2023-09-19T11:33:31;100453.56;;;22.59;49.34
10460;BME280;54412;51.206;6.888;2023-09-19T11:36:12;100453.72;;;22.23;48.38
10460;BME280;54412;51.206;6.888;2023-09-19T11:41:40;100464.16;;;22.26;49.03
10460;BME280;54412;51.206;6.888;2023-09-19T11:46:55;100466.63;;;22.19;48.99
10460;BME280;54412;51.206;6.888;2023-09-19T11:49:32;100457.75;;;21.56;49.72
10460;BME280;54412;51.206;6.888;2023-09-19T11:52:02;100452.31;;;22.36;49.59
10460;BME280;54412;51.206;6.888;2023-09-19T11:54:32;100460.63;;;22.43;48.52
10460;BME280;54412;51.206;6.888;2023-09-19T11:56:59;100456.72;;;22.80;47.95
10460;BME280;54412;51.206;6.888;2023-09-19T11:59:32;100456.81;;;22.71;47.52
10460;BME280;54412;51.206;6.888;2023-09-19T12:02:04;100453.13;;;22.72;47.67
10460;BME280;54412;51.206;6.888;2023-09-19T12:07:09;100450.94;;;23.01;46.46
10460;BME280;54412;51.206;6.888;2023-09-19T12:09:47;100457.59;;;22.46;46.28
10460;BME280;54412;51.206;6.888;2023-09-19T12:12:28;100439.34;;;23.01;45.06
10460;BME280;54412;51.206;6.888;2023-09-19T12:14:56;100438.44;;;23.59;44.68
10460;BME280;54412;51.206;6.888;2023-09-19T12:17:36;100450.63;;;23.38;44.19
10460;BME280;54412;51.206;6.888;2023-09-19T12:20:02;100425.81;;;23.18;44.39
10460;BME280;54412;51.206;6.888;2023-09-19T12:22:46;100420.59;;;23.25;44.71
10460;BME280;54412;51.206;6.888;2023-09-19T12:25:16;100424.28;;;23.49;43.43
10460;BME280;54412;51.206;6.888;2023-09-19T12:27:48;100440.56;;;23.14;42.15
10460;BME280;54412;51.206;6.888;2023-09-19T12:30:19;100444.69;;;22.93;43.58
10460;BME280;54412;51.206;6.888;2023-09-19T12:32:47;100445.78;;;22.39;44.26
10460;BME280;54412;51.206;6.888;2023-09-19T12:35:47;100428.78;;;22.73;43.89
10460;BME280;54412;51.206;6.888;2023-09-19T12:38:26;100427.56;;;22.94;44.30
10460;BME280;54412;51.206;6.888;2023-09-19T12:40:59;100413.78;;;22.97;44.68
10460;BME280;54412;51.206;6.888;2023-09-19T12:43:31;100414.91;;;22.86;43.70
10460;BME280;54412;51.206;6.888;2023-09-19T12:46:02;100414.00;;;23.11;43.71
10460;BME280;54412;51.206;6.888;2023-09-19T12:48:30;100423.56;;;22.72;43.63
10460;BME280;54412;51.206;6.888;2023-09-19T12:51:07;100397.47;;;22.98;43.49
10460;BME280;54412;51.206;6.888;2023-09-19T12:53:38;100401.84;;;23.41;43.31
10460;BME280;54412;51.206;6.888;2023-09-19T12:56:14;100401.53;;;23.44;43.20
10460;BME280;54412;51.206;6.888;2023-09-19T12:58:56;100400.72;;;23.10;43.69
10460;BME280;54412;51.206;6.888;2023-09-19T13:01:26;100392.59;;;23.02;44.38
10460;BME280;54412;51.206;6.888;2023-09-19T13:04:17;100389.47;;;23.14;43.72
10460;BME280;54412;51.206;6.888;2023-09-19T13:09:26;100386.28;;;23.19;43.00
10460;BME280;54412;51.206;6.888;2023-09-19T13:12:00;100387.50;;;22.91;43.12
10460;BME280;54412;51.206;6.888;2023-09-19T13:14:29;100392.28;;;23.05;43.18
10460;BME280;54412;51.206;6.888;2023-09-19T13:17:05;100399.31;;;22.98;43.19
10460;BME280;54412;51.206;6.888;2023-09-19T13:19:51;100396.97;;;23.03;43.02
10460;BME280;54412;51.206;6.888;2023-09-19T13:22:40;100412.31;;;23.10;43.32
10460;BME280;54412;51.206;6.888;2023-09-19T13:25:18;100410.59;;;23.01;43.27
10460;BME280;54412;51.206;6.888;2023-09-19T13:27:48;100399.69;;;23.11;43.57
10460;BME280;54412;51.206;6.888;2023-09-19T13:30:17;100402.53;;;22.50;44.23
10460;BME280;54412;51.206;6.888;2023-09-19T13:32:44;100402.34;;;22.69;44.86
10460;BME280;54412;51.206;6.888;2023-09-19T13:35:13;100396.88;;;22.78;44.66
10460;BME280;54412;51.206;6.888;2023-09-19T13:37:41;100388.50;;;22.38;44.52
10460;BME280;54412;51.206;6.888;2023-09-19T13:40:09;100401.06;;;22.30;45.37
10460;BME280;54412;51.206;6.888;2023-09-19T13:42:36;100399.50;;;22.27;45.66
10460;BME280;54412;51.206;6.888;2023-09-19T13:45:04;100391.66;;;22.08;46.17
10460;BME280;54412;51.206;6.888;2023-09-19T13:47:33;100397.63;;;22.02;46.31
10460;BME280;54412;51.206;6.888;2023-09-19T13:50:02;100397.13;;;21.81;46.26